createdAt,value
2018-05-17T00:00:08.131Z,6.437376
2018-05-17T00:00:20.716Z,6.437376
2018-05-17T00:00:33.175Z,8.04672
2018-05-17T00:00:45.610Z,8.04672
2018-05-17T00:00:58.034Z,8.04672
2018-05-17T00:01:10.563Z,6.437376
2018-05-17T00:01:22.971Z,6.437376
2018-05-17T00:01:35.374Z,6.437376
2018-05-17T00:01:47.782Z,8.04672
2018-05-17T00:02:00.183Z,8.04672
2018-05-17T00:02:12.622Z,3.218688
2018-05-17T00:02:25.034Z,3.218688
2018-05-17T00:02:37.448Z,4.828032
2018-05-17T00:02:49.866Z,6.437376
2018-05-17T00:03:02.281Z,6.437376
2018-05-17T00:03:14.702Z,4.828032
2018-05-17T00:03:27.104Z,4.828032
2018-05-17T00:03:39.517Z,6.437376
2018-05-17T00:03:51.934Z,6.437376
2018-05-17T00:04:04.350Z,1.609344
2018-05-17T00:04:16.846Z,8.04672
2018-05-17T00:04:29.341Z,8.04672
2018-05-17T00:04:41.764Z,8.04672
2018-05-17T00:04:54.171Z,8.04672
2018-05-17T00:05:06.579Z,6.437376
2018-05-17T00:05:19.093Z,6.437376
2018-05-17T00:05:31.502Z,6.437376
2018-05-17T00:05:43.914Z,6.437376
2018-05-17T00:05:56.339Z,6.437376
2018-05-17T00:06:08.885Z,8.04672
2018-05-17T00:06:21.303Z,8.04672
2018-05-17T00:06:33.718Z,8.04672
2018-05-17T00:06:46.135Z,8.04672
2018-05-17T00:06:58.554Z,9.656064
2018-05-17T00:07:10.975Z,9.656064
2018-05-17T00:07:23.379Z,9.656064
2018-05-17T00:07:35.779Z,9.656064
2018-05-17T00:07:48.272Z,9.656064
2018-05-17T00:08:00.691Z,9.656064
2018-05-17T00:08:13.105Z,8.04672
2018-05-17T00:08:25.513Z,8.04672
2018-05-17T00:08:37.927Z,8.04672
2018-05-17T00:08:50.338Z,9.656064
2018-05-17T00:09:02.774Z,9.656064
2018-05-17T00:09:15.185Z,8.04672
2018-05-17T00:09:27.596Z,9.656064
2018-05-17T00:09:39.995Z,9.656064
2018-05-17T00:09:52.425Z,9.656064
2018-05-17T00:10:04.832Z,8.04672
2018-05-17T00:10:17.321Z,8.04672
2018-05-17T00:10:29.745Z,8.04672
2018-05-17T00:10:42.168Z,8.04672
2018-05-17T00:10:54.570Z,9.656064
2018-05-17T00:11:06.980Z,8.04672
2018-05-17T00:11:19.416Z,8.04672
2018-05-17T00:11:31.902Z,11.265408
2018-05-17T00:11:44.320Z,11.265408
2018-05-17T00:11:56.916Z,11.265408
2018-05-17T00:12:09.345Z,6.437376
2018-05-17T00:12:21.765Z,6.437376
2018-05-17T00:12:34.184Z,6.437376
2018-05-17T00:12:46.598Z,6.437376
2018-05-17T00:12:58.990Z,6.437376
2018-05-17T00:13:11.506Z,4.828032
2018-05-17T00:13:23.911Z,14.484096
2018-05-17T00:13:36.324Z,14.484096
2018-05-17T00:13:48.766Z,14.484096
2018-05-17T00:14:01.299Z,14.484096
2018-05-17T00:14:13.717Z,8.04672
2018-05-17T00:14:26.127Z,8.04672
2018-05-17T00:14:38.519Z,8.04672
2018-05-17T00:14:50.940Z,9.656064
2018-05-17T00:15:03.352Z,9.656064
2018-05-17T00:15:15.773Z,6.437376
2018-05-17T00:15:28.190Z,6.437376
2018-05-17T00:15:40.837Z,6.437376
2018-05-17T00:15:53.330Z,8.04672
2018-05-17T00:16:05.740Z,6.437376
2018-05-17T00:16:18.146Z,8.04672
2018-05-17T00:16:30.552Z,8.04672
2018-05-17T00:16:43.129Z,8.04672
2018-05-17T00:16:55.546Z,8.04672
2018-05-17T00:17:07.939Z,6.437376
2018-05-17T00:17:20.360Z,6.437376
2018-05-17T00:17:32.780Z,6.437376
2018-05-17T00:17:45.180Z,6.437376
2018-05-17T00:17:57.591Z,9.656064
2018-05-17T00:18:09.999Z,4.828032
2018-05-17T00:18:22.544Z,6.437376
2018-05-17T00:18:34.958Z,6.437376
2018-05-17T00:18:47.367Z,6.437376
2018-05-17T00:18:59.920Z,6.437376
2018-05-17T00:19:12.333Z,4.828032
2018-05-17T00:19:24.751Z,6.437376
2018-05-17T00:19:37.151Z,8.04672
2018-05-17T00:19:49.571Z,8.04672
2018-05-17T00:20:01.984Z,8.04672
2018-05-17T00:20:14.420Z,3.218688
2018-05-17T00:20:26.878Z,3.218688
2018-05-17T00:20:39.281Z,3.218688
2018-05-17T00:20:51.684Z,3.218688
2018-05-17T00:21:04.098Z,8.04672
2018-05-17T00:21:16.569Z,14.484096
2018-05-17T00:21:29.149Z,14.484096
2018-05-17T00:21:41.558Z,14.484096
2018-05-17T00:21:53.958Z,14.484096
2018-05-17T00:22:06.357Z,3.218688
2018-05-17T00:22:18.755Z,4.828032
2018-05-17T00:22:31.324Z,6.437376
2018-05-17T00:22:43.863Z,8.04672
2018-05-17T00:22:56.297Z,8.04672
2018-05-17T00:23:08.710Z,4.828032
2018-05-17T00:23:21.125Z,4.828032
2018-05-17T00:23:33.546Z,6.437376
2018-05-17T00:23:45.953Z,6.437376
2018-05-17T00:23:58.369Z,6.437376
2018-05-17T00:24:10.772Z,6.437376
2018-05-17T00:24:23.292Z,6.437376
2018-05-17T00:24:35.704Z,8.04672
2018-05-17T00:24:48.265Z,9.656064
2018-05-17T00:25:00.673Z,9.656064
2018-05-17T00:25:13.077Z,3.218688
2018-05-17T00:25:25.491Z,3.218688
2018-05-17T00:25:37.916Z,4.828032
2018-05-17T00:25:50.321Z,8.04672
2018-05-17T00:26:02.737Z,8.04672
2018-05-17T00:26:15.166Z,6.437376
2018-05-17T00:26:27.722Z,8.04672
2018-05-17T00:26:40.159Z,8.04672
2018-05-17T00:26:52.570Z,8.04672
2018-05-17T00:27:04.986Z,3.218688
2018-05-17T00:27:17.387Z,3.218688
2018-05-17T00:27:29.796Z,3.218688
2018-05-17T00:27:42.220Z,6.437376
2018-05-17T00:27:54.632Z,6.437376
2018-05-17T00:28:07.062Z,6.437376
2018-05-17T00:28:19.491Z,6.437376
2018-05-17T00:28:31.981Z,9.656064
2018-05-17T00:28:44.406Z,9.656064
2018-05-17T00:28:56.834Z,9.656064
2018-05-17T00:29:09.269Z,4.828032
2018-05-17T00:29:21.687Z,4.828032
2018-05-17T00:29:34.135Z,6.437376
2018-05-17T00:29:46.555Z,6.437376
2018-05-17T00:29:58.959Z,6.437376
2018-05-17T00:30:11.435Z,3.218688
2018-05-17T00:30:23.856Z,3.218688
2018-05-17T00:30:36.273Z,3.218688
2018-05-17T00:30:48.682Z,3.218688
2018-05-17T00:31:01.099Z,8.04672
2018-05-17T00:31:13.523Z,6.437376
2018-05-17T00:31:25.964Z,6.437376
2018-05-17T00:31:38.386Z,9.656064
2018-05-17T00:31:50.806Z,9.656064
2018-05-17T00:32:03.228Z,9.656064
2018-05-17T00:32:15.642Z,3.218688
2018-05-17T00:32:28.053Z,3.218688
2018-05-17T00:32:40.457Z,3.218688
2018-05-17T00:32:52.879Z,3.218688
2018-05-17T00:33:05.275Z,1.609344
2018-05-17T00:33:17.698Z,1.609344
2018-05-17T00:33:30.113Z,3.218688
2018-05-17T00:33:42.524Z,3.218688
2018-05-17T00:33:55.015Z,6.437376
2018-05-17T00:34:07.428Z,3.218688
2018-05-17T00:34:19.834Z,6.437376
2018-05-17T00:34:32.265Z,8.04672
2018-05-17T00:34:44.688Z,8.04672
2018-05-17T00:34:57.103Z,8.04672
2018-05-17T00:35:09.588Z,3.218688
2018-05-17T00:35:22.006Z,3.218688
2018-05-17T00:35:34.416Z,6.437376
2018-05-17T00:35:47.186Z,6.437376
2018-05-17T00:35:59.630Z,12.874752
2018-05-17T00:36:12.040Z,12.874752
2018-05-17T00:36:24.537Z,12.874752
2018-05-17T00:36:36.952Z,12.874752
2018-05-17T00:36:49.363Z,12.874752
2018-05-17T00:37:01.770Z,12.874752
2018-05-17T00:37:14.191Z,9.656064
2018-05-17T00:37:26.616Z,9.656064
2018-05-17T00:37:39.032Z,9.656064
2018-05-17T00:37:51.456Z,9.656064
2018-05-17T00:38:03.857Z,6.437376
2018-05-17T00:38:16.266Z,8.04672
2018-05-17T00:38:28.675Z,8.04672
2018-05-17T00:38:41.095Z,8.04672
2018-05-17T00:38:53.513Z,8.04672
2018-05-17T00:39:05.920Z,1.609344
2018-05-17T00:39:18.339Z,1.609344
2018-05-17T00:39:30.771Z,3.218688
2018-05-17T00:39:43.187Z,3.218688
2018-05-17T00:39:55.699Z,3.218688
2018-05-17T00:40:08.126Z,3.218688
2018-05-17T00:40:20.561Z,3.218688
2018-05-17T00:40:32.989Z,8.04672
2018-05-17T00:40:45.403Z,8.04672
2018-05-17T00:40:57.807Z,8.04672
2018-05-17T00:41:10.224Z,4.828032
2018-05-17T00:41:22.625Z,6.437376
2018-05-17T00:41:35.034Z,6.437376
2018-05-17T00:41:47.452Z,6.437376
2018-05-17T00:41:59.861Z,8.04672
2018-05-17T00:42:12.272Z,9.656064
2018-05-17T00:42:24.692Z,9.656064
2018-05-17T00:42:37.190Z,9.656064
2018-05-17T00:42:49.598Z,9.656064
2018-05-17T00:43:02.018Z,9.656064
2018-05-17T00:43:14.421Z,6.437376
2018-05-17T00:43:26.819Z,6.437376
2018-05-17T00:43:39.252Z,8.04672
2018-05-17T00:43:51.669Z,8.04672
2018-05-17T00:44:04.073Z,1.609344
2018-05-17T00:44:16.491Z,6.437376
2018-05-17T00:44:29.009Z,6.437376
2018-05-17T00:44:41.407Z,6.437376
2018-05-17T00:44:53.826Z,6.437376
2018-05-17T00:45:06.254Z,6.437376
2018-05-17T00:45:18.667Z,6.437376
2018-05-17T00:45:31.064Z,8.04672
2018-05-17T00:45:43.505Z,9.656064
2018-05-17T00:45:55.924Z,9.656064
2018-05-17T00:46:08.321Z,8.04672
2018-05-17T00:46:20.891Z,8.04672
2018-05-17T00:46:33.300Z,8.04672
2018-05-17T00:46:45.720Z,8.04672
2018-05-17T00:46:58.139Z,8.04672
2018-05-17T00:47:10.565Z,6.437376
2018-05-17T00:47:23.052Z,6.437376
2018-05-17T00:47:35.463Z,6.437376
2018-05-17T00:47:47.855Z,8.04672
2018-05-17T00:48:00.274Z,8.04672
2018-05-17T00:48:12.721Z,6.437376
2018-05-17T00:48:25.372Z,6.437376
2018-05-17T00:48:37.869Z,6.437376
2018-05-17T00:48:50.301Z,6.437376
2018-05-17T00:49:02.782Z,6.437376
2018-05-17T00:49:15.199Z,3.218688
2018-05-17T00:49:27.698Z,8.04672
2018-05-17T00:49:40.106Z,8.04672
2018-05-17T00:49:52.527Z,8.04672
2018-05-17T00:50:04.965Z,3.218688
2018-05-17T00:50:17.371Z,3.218688
2018-05-17T00:50:29.806Z,3.218688
2018-05-17T00:50:42.222Z,3.218688
2018-05-17T00:50:54.643Z,3.218688
2018-05-17T00:51:07.055Z,1.609344
2018-05-17T00:51:19.469Z,3.218688
2018-05-17T00:51:31.866Z,3.218688
2018-05-17T00:51:44.273Z,4.828032
2018-05-17T00:51:56.702Z,4.828032
2018-05-17T00:52:09.126Z,4.828032
2018-05-17T00:52:21.841Z,8.04672
2018-05-17T00:52:34.892Z,8.04672
2018-05-17T00:52:47.305Z,8.04672
2018-05-17T00:52:59.712Z,8.04672
2018-05-17T00:53:12.109Z,6.437376
2018-05-17T00:53:24.516Z,6.437376
2018-05-17T00:53:36.932Z,8.04672
2018-05-17T00:53:49.334Z,8.04672
2018-05-17T00:54:02.344Z,8.04672
2018-05-17T00:54:14.748Z,3.218688
2018-05-17T00:54:27.174Z,3.218688
2018-05-17T00:54:39.580Z,6.437376
2018-05-17T00:54:52.020Z,6.437376
2018-05-17T00:55:04.433Z,3.218688
2018-05-17T00:55:16.899Z,4.828032
2018-05-17T00:55:29.320Z,4.828032
2018-05-17T00:55:41.734Z,4.828032
2018-05-17T00:55:54.134Z,4.828032
2018-05-17T00:56:06.551Z,3.218688
2018-05-17T00:56:18.964Z,6.437376
2018-05-17T00:56:31.395Z,8.04672
2018-05-17T00:56:43.801Z,8.04672
2018-05-17T00:56:56.210Z,8.04672
2018-05-17T00:57:08.619Z,4.828032
2018-05-17T00:57:21.034Z,4.828032
2018-05-17T00:57:33.449Z,4.828032
2018-05-17T00:57:45.865Z,4.828032
2018-05-17T00:57:58.286Z,4.828032
2018-05-17T00:58:10.714Z,3.218688
2018-05-17T00:58:23.126Z,4.828032
2018-05-17T00:58:35.541Z,4.828032
2018-05-17T00:58:47.958Z,4.828032
2018-05-17T00:59:00.456Z,4.828032
2018-05-17T00:59:12.870Z,4.828032
2018-05-17T00:59:25.289Z,4.828032
2018-05-17T00:59:37.732Z,4.828032
2018-05-17T00:59:50.139Z,6.437376
2018-05-17T01:00:02.575Z,6.437376
2018-05-17T01:00:15.112Z,3.218688
2018-05-17T01:00:27.557Z,3.218688
2018-05-17T01:00:40.048Z,3.218688
2018-05-17T01:00:52.498Z,3.218688
2018-05-17T01:01:04.935Z,1.609344
2018-05-17T01:01:17.345Z,1.609344
2018-05-17T01:01:29.755Z,3.218688
2018-05-17T01:01:42.164Z,3.218688
2018-05-17T01:01:54.673Z,3.218688
2018-05-17T01:02:07.154Z,3.218688
2018-05-17T01:02:19.574Z,3.218688
2018-05-17T01:02:31.999Z,3.218688
2018-05-17T01:02:44.414Z,3.218688
2018-05-17T01:02:56.826Z,3.218688
2018-05-17T01:03:09.239Z,1.609344
2018-05-17T01:03:21.656Z,3.218688
2018-05-17T01:03:34.080Z,3.218688
2018-05-17T01:03:46.488Z,3.218688
2018-05-17T01:03:58.930Z,3.218688
2018-05-17T01:04:11.361Z,3.218688
2018-05-17T01:04:23.866Z,4.828032
2018-05-17T01:04:36.279Z,4.828032
2018-05-17T01:04:48.705Z,4.828032
2018-05-17T01:05:01.118Z,8.04672
2018-05-17T01:05:13.542Z,8.04672
2018-05-17T01:05:25.951Z,9.656064
2018-05-17T01:05:38.375Z,11.265408
2018-05-17T01:05:50.853Z,11.265408
2018-05-17T01:06:03.301Z,11.265408
2018-05-17T01:06:15.722Z,6.437376
2018-05-17T01:06:28.126Z,6.437376
2018-05-17T01:06:40.609Z,8.04672
2018-05-17T01:06:53.042Z,8.04672
2018-05-17T01:07:05.497Z,1.609344
2018-05-17T01:07:17.999Z,1.609344
2018-05-17T01:07:30.415Z,3.218688
2018-05-17T01:07:42.826Z,3.218688
2018-05-17T01:07:55.256Z,3.218688
2018-05-17T01:08:07.665Z,1.609344
2018-05-17T01:08:20.081Z,8.04672
2018-05-17T01:08:32.493Z,9.656064
2018-05-17T01:08:44.905Z,9.656064
2018-05-17T01:08:57.329Z,9.656064
2018-05-17T01:09:09.742Z,8.04672
2018-05-17T01:09:22.150Z,8.04672
2018-05-17T01:09:34.562Z,8.04672
2018-05-17T01:09:46.993Z,8.04672
2018-05-17T01:09:59.408Z,8.04672
2018-05-17T01:10:11.834Z,8.04672
2018-05-17T01:10:24.389Z,8.04672
2018-05-17T01:10:36.786Z,8.04672
2018-05-17T01:10:49.209Z,8.04672
2018-05-17T01:11:01.650Z,8.04672
2018-05-17T01:11:14.065Z,3.218688
2018-05-17T01:11:26.484Z,3.218688
2018-05-17T01:11:38.897Z,6.437376
2018-05-17T01:11:51.385Z,6.437376
2018-05-17T01:12:03.818Z,9.656064
2018-05-17T01:12:16.221Z,9.656064
2018-05-17T01:12:28.630Z,9.656064
2018-05-17T01:12:41.067Z,9.656064
2018-05-17T01:12:53.671Z,9.656064
2018-05-17T01:13:06.084Z,4.828032
2018-05-17T01:13:18.491Z,4.828032
2018-05-17T01:13:30.918Z,8.04672
2018-05-17T01:13:43.332Z,12.874752
2018-05-17T01:13:55.873Z,12.874752
2018-05-17T01:14:08.297Z,6.437376
2018-05-17T01:14:20.706Z,8.04672
2018-05-17T01:14:33.121Z,8.04672
2018-05-17T01:14:45.522Z,8.04672
2018-05-17T01:14:57.938Z,8.04672
2018-05-17T01:15:10.339Z,8.04672
2018-05-17T01:15:22.760Z,8.04672
2018-05-17T01:15:35.221Z,8.04672
2018-05-17T01:15:47.782Z,8.04672
2018-05-17T01:16:00.203Z,8.04672
2018-05-17T01:16:12.628Z,6.437376
2018-05-17T01:16:25.082Z,6.437376
2018-05-17T01:16:37.487Z,6.437376
2018-05-17T01:16:49.884Z,8.04672
2018-05-17T01:17:02.296Z,11.265408
2018-05-17T01:17:14.713Z,11.265408
2018-05-17T01:17:27.132Z,11.265408
2018-05-17T01:17:39.545Z,11.265408
2018-05-17T01:17:51.957Z,11.265408
2018-05-17T01:18:04.369Z,1.609344
2018-05-17T01:18:16.937Z,3.218688
2018-05-17T01:18:29.341Z,4.828032
2018-05-17T01:18:41.747Z,6.437376
2018-05-17T01:18:54.165Z,9.656064
2018-05-17T01:19:06.595Z,11.265408
2018-05-17T01:19:19.009Z,11.265408
2018-05-17T01:19:31.443Z,11.265408
2018-05-17T01:19:43.841Z,11.265408
2018-05-17T01:19:56.270Z,11.265408
2018-05-17T01:20:08.675Z,8.04672
2018-05-17T01:20:21.081Z,9.656064
2018-05-17T01:20:33.504Z,9.656064
2018-05-17T01:20:45.938Z,11.265408
2018-05-17T01:20:58.371Z,11.265408
2018-05-17T01:21:10.794Z,6.437376
2018-05-17T01:21:23.199Z,9.656064
2018-05-17T01:21:35.616Z,9.656064
2018-05-17T01:21:48.036Z,9.656064
2018-05-17T01:22:00.459Z,11.265408
2018-05-17T01:22:12.869Z,9.656064
2018-05-17T01:22:25.430Z,9.656064
2018-05-17T01:22:37.857Z,9.656064
2018-05-17T01:22:50.310Z,9.656064
2018-05-17T01:23:02.722Z,9.656064
2018-05-17T01:23:15.171Z,8.04672
2018-05-17T01:23:27.580Z,8.04672
2018-05-17T01:23:40.008Z,8.04672
2018-05-17T01:23:52.524Z,8.04672
2018-05-17T01:24:04.941Z,11.265408
2018-05-17T01:24:17.357Z,11.265408
2018-05-17T01:24:29.781Z,11.265408
2018-05-17T01:24:42.200Z,11.265408
2018-05-17T01:24:54.741Z,11.265408
2018-05-17T01:25:07.199Z,3.218688
2018-05-17T01:25:19.606Z,3.218688
2018-05-17T01:25:32.101Z,3.218688
2018-05-17T01:25:44.533Z,3.218688
2018-05-17T01:25:56.953Z,3.218688
2018-05-17T01:26:09.378Z,6.437376
2018-05-17T01:26:21.836Z,6.437376
2018-05-17T01:26:34.243Z,6.437376
2018-05-17T01:26:46.655Z,6.437376
2018-05-17T01:26:59.077Z,6.437376
2018-05-17T01:27:11.493Z,1.609344
2018-05-17T01:27:23.928Z,3.218688
2018-05-17T01:27:36.345Z,3.218688
2018-05-17T01:27:48.746Z,8.04672
2018-05-17T01:28:01.155Z,8.04672
2018-05-17T01:28:13.585Z,4.828032
2018-05-17T01:28:26.000Z,6.437376
2018-05-17T01:28:38.398Z,6.437376
2018-05-17T01:28:50.802Z,6.437376
2018-05-17T01:29:03.239Z,6.437376
2018-05-17T01:29:15.667Z,6.437376
2018-05-17T01:29:28.080Z,6.437376
2018-05-17T01:29:40.477Z,6.437376
2018-05-17T01:29:52.927Z,8.04672
2018-05-17T01:30:05.367Z,6.437376
2018-05-17T01:30:17.867Z,8.04672
2018-05-17T01:30:30.281Z,9.656064
2018-05-17T01:30:42.682Z,9.656064
2018-05-17T01:30:55.088Z,9.656064
2018-05-17T01:31:07.512Z,3.218688
2018-05-17T01:31:19.917Z,4.828032
2018-05-17T01:31:32.332Z,6.437376
2018-05-17T01:31:44.763Z,6.437376
2018-05-17T01:31:57.181Z,6.437376
2018-05-17T01:32:09.690Z,1.609344
2018-05-17T01:32:22.092Z,1.609344
2018-05-17T01:32:34.509Z,1.609344
2018-05-17T01:32:46.985Z,1.609344
2018-05-17T01:32:59.404Z,1.609344
2018-05-17T01:33:11.822Z,3.218688
2018-05-17T01:33:24.271Z,3.218688
2018-05-17T01:33:36.683Z,4.828032
2018-05-17T01:33:49.101Z,4.828032
2018-05-17T01:34:01.499Z,4.828032
2018-05-17T01:34:13.918Z,6.437376
2018-05-17T01:34:26.325Z,6.437376
2018-05-17T01:34:38.736Z,6.437376
2018-05-17T01:34:51.131Z,6.437376
2018-05-17T01:35:04.202Z,1.609344
2018-05-17T01:35:17.055Z,3.218688
2018-05-17T01:35:29.479Z,3.218688
2018-05-17T01:35:41.899Z,3.218688
2018-05-17T01:35:54.314Z,3.218688
2018-05-17T01:36:06.723Z,3.218688
2018-05-17T01:36:19.153Z,3.218688
2018-05-17T01:36:31.560Z,3.218688
2018-05-17T01:36:43.972Z,3.218688
2018-05-17T01:36:56.368Z,3.218688
2018-05-17T01:37:08.856Z,1.609344
2018-05-17T01:37:21.253Z,6.437376
2018-05-17T01:37:33.667Z,8.04672
2018-05-17T01:37:46.157Z,8.04672
2018-05-17T01:37:58.574Z,8.04672
2018-05-17T01:38:10.989Z,4.828032
2018-05-17T01:38:23.418Z,4.828032
2018-05-17T01:38:35.846Z,6.437376
2018-05-17T01:38:48.265Z,6.437376
2018-05-17T01:39:00.674Z,6.437376
2018-05-17T01:39:13.078Z,3.218688
2018-05-17T01:39:25.564Z,3.218688
2018-05-17T01:39:37.983Z,3.218688
2018-05-17T01:39:50.400Z,3.218688
2018-05-17T01:40:02.916Z,9.656064
2018-05-17T01:40:15.335Z,8.04672
2018-05-17T01:40:27.743Z,11.265408
2018-05-17T01:40:40.150Z,11.265408
2018-05-17T01:40:52.571Z,11.265408
2018-05-17T01:41:04.991Z,3.218688
2018-05-17T01:41:17.406Z,3.218688
2018-05-17T01:41:29.816Z,9.656064
2018-05-17T01:41:42.220Z,11.265408
2018-05-17T01:41:54.637Z,11.265408
2018-05-17T01:42:07.334Z,1.609344
2018-05-17T01:42:20.385Z,3.218688
2018-05-17T01:42:32.796Z,3.218688
2018-05-17T01:42:45.215Z,3.218688
2018-05-17T01:42:57.671Z,3.218688
2018-05-17T01:43:10.092Z,3.218688
2018-05-17T01:43:22.522Z,3.218688
2018-05-17T01:43:34.926Z,3.218688
2018-05-17T01:43:47.330Z,3.218688
2018-05-17T01:43:59.756Z,6.437376
2018-05-17T01:44:12.184Z,3.218688
2018-05-17T01:44:24.713Z,4.828032
2018-05-17T01:44:37.135Z,8.04672
2018-05-17T01:44:49.638Z,8.04672
2018-05-17T01:45:02.053Z,8.04672
2018-05-17T01:45:14.471Z,8.04672
2018-05-17T01:45:26.869Z,8.04672
2018-05-17T01:45:39.326Z,8.04672
2018-05-17T01:45:51.731Z,8.04672
2018-05-17T01:46:04.143Z,1.609344
2018-05-17T01:46:16.679Z,4.828032
2018-05-17T01:46:29.148Z,4.828032
2018-05-17T01:46:41.559Z,4.828032
2018-05-17T01:46:53.966Z,4.828032
2018-05-17T01:47:06.382Z,3.218688
2018-05-17T01:47:18.792Z,3.218688
2018-05-17T01:47:31.199Z,3.218688
2018-05-17T01:47:43.604Z,4.828032
2018-05-17T01:47:56.019Z,6.437376
2018-05-17T01:48:08.448Z,6.437376
2018-05-17T01:48:20.975Z,9.656064
2018-05-17T01:48:33.379Z,11.265408
2018-05-17T01:48:45.792Z,11.265408
2018-05-17T01:48:58.217Z,11.265408
2018-05-17T01:49:10.621Z,6.437376
2018-05-17T01:49:23.021Z,6.437376
2018-05-17T01:49:35.440Z,6.437376
2018-05-17T01:49:47.847Z,6.437376
2018-05-17T01:50:00.337Z,6.437376
2018-05-17T01:50:12.747Z,3.218688
2018-05-17T01:50:25.167Z,4.828032
2018-05-17T01:50:37.584Z,4.828032
2018-05-17T01:50:50.097Z,6.437376
2018-05-17T01:51:02.514Z,9.656064
2018-05-17T01:51:14.932Z,9.656064
2018-05-17T01:51:27.340Z,9.656064
2018-05-17T01:51:39.750Z,9.656064
2018-05-17T01:51:52.143Z,9.656064
2018-05-17T01:52:04.568Z,1.609344
2018-05-17T01:52:16.988Z,1.609344
2018-05-17T01:52:29.476Z,1.609344
2018-05-17T01:52:41.896Z,1.609344
2018-05-17T01:52:54.327Z,1.609344
2018-05-17T01:53:06.735Z,3.218688
2018-05-17T01:53:19.170Z,3.218688
2018-05-17T01:53:31.672Z,3.218688
2018-05-17T01:53:44.077Z,6.437376
2018-05-17T01:53:56.634Z,8.04672
2018-05-17T01:54:09.061Z,6.437376
2018-05-17T01:54:21.457Z,8.04672
2018-05-17T01:54:33.855Z,8.04672
2018-05-17T01:54:46.346Z,8.04672
2018-05-17T01:54:58.843Z,8.04672
2018-05-17T01:55:11.250Z,3.218688
2018-05-17T01:55:23.646Z,4.828032
2018-05-17T01:55:36.051Z,6.437376
2018-05-17T01:55:48.462Z,6.437376
2018-05-17T01:56:00.874Z,6.437376
2018-05-17T01:56:13.290Z,1.609344
2018-05-17T01:56:25.682Z,1.609344
2018-05-17T01:56:38.195Z,3.218688
2018-05-17T01:56:50.614Z,3.218688
2018-05-17T01:57:03.033Z,3.218688
2018-05-17T01:57:15.438Z,1.609344
2018-05-17T01:57:27.854Z,1.609344
2018-05-17T01:57:40.277Z,4.828032
2018-05-17T01:57:52.690Z,6.437376
2018-05-17T01:58:05.123Z,3.218688
2018-05-17T01:58:17.559Z,6.437376
2018-05-17T01:58:29.981Z,6.437376
2018-05-17T01:58:42.387Z,6.437376
2018-05-17T01:58:55.115Z,6.437376
2018-05-17T01:59:07.595Z,6.437376
2018-05-17T01:59:20.013Z,6.437376
2018-05-17T01:59:32.427Z,6.437376
2018-05-17T01:59:44.833Z,6.437376
2018-05-17T01:59:57.238Z,6.437376
2018-05-17T02:00:09.666Z,3.218688
2018-05-17T02:00:22.612Z,3.218688
2018-05-17T02:00:35.060Z,3.218688
2018-05-17T02:00:47.593Z,3.218688
2018-05-17T02:01:00.026Z,3.218688
2018-05-17T02:01:12.456Z,1.609344
2018-05-17T02:01:24.904Z,3.218688
2018-05-17T02:01:37.318Z,3.218688
2018-05-17T02:01:49.744Z,3.218688
2018-05-17T02:02:02.160Z,3.218688
2018-05-17T02:02:14.563Z,4.828032
2018-05-17T02:02:26.979Z,6.437376
2018-05-17T02:02:39.406Z,8.04672
2018-05-17T02:02:51.813Z,9.656064
2018-05-17T02:03:04.228Z,6.437376
2018-05-17T02:03:16.641Z,8.04672
2018-05-17T02:03:29.041Z,8.04672
2018-05-17T02:03:41.487Z,8.04672
2018-05-17T02:03:53.899Z,8.04672
2018-05-17T02:04:06.340Z,3.218688
2018-05-17T02:04:18.751Z,3.218688
2018-05-17T02:04:31.153Z,3.218688
2018-05-17T02:04:43.565Z,3.218688
2018-05-17T02:04:56.053Z,4.828032
2018-05-17T02:05:08.481Z,1.609344
2018-05-17T02:05:20.893Z,4.828032
2018-05-17T02:05:33.386Z,8.04672
2018-05-17T02:05:45.820Z,8.04672
2018-05-17T02:05:58.316Z,8.04672
2018-05-17T02:06:10.763Z,6.437376
2018-05-17T02:06:23.262Z,6.437376
2018-05-17T02:06:35.674Z,6.437376
2018-05-17T02:06:48.077Z,6.437376
2018-05-17T02:07:00.493Z,6.437376
2018-05-17T02:07:12.900Z,8.04672
2018-05-17T02:07:25.307Z,8.04672
2018-05-17T02:07:37.715Z,8.04672
2018-05-17T02:07:50.147Z,8.04672
2018-05-17T02:08:02.569Z,8.04672
2018-05-17T02:08:15.001Z,1.609344
2018-05-17T02:08:27.491Z,1.609344
2018-05-17T02:08:39.901Z,3.218688
2018-05-17T02:08:52.313Z,3.218688
2018-05-17T02:09:04.716Z,3.218688
2018-05-17T02:09:17.136Z,6.437376
2018-05-17T02:09:29.631Z,6.437376
2018-05-17T02:09:42.043Z,6.437376
2018-05-17T02:09:54.611Z,6.437376
2018-05-17T02:10:07.026Z,8.04672
2018-05-17T02:10:19.458Z,8.04672
2018-05-17T02:10:31.865Z,8.04672
2018-05-17T02:10:44.279Z,8.04672
2018-05-17T02:10:56.688Z,8.04672
2018-05-17T02:11:09.116Z,3.218688
2018-05-17T02:11:21.602Z,3.218688
2018-05-17T02:11:34.018Z,3.218688
2018-05-17T02:11:46.667Z,3.218688
2018-05-17T02:11:59.077Z,3.218688
2018-05-17T02:12:11.503Z,6.437376
2018-05-17T02:12:23.909Z,6.437376
2018-05-17T02:12:36.314Z,9.656064
2018-05-17T02:12:48.720Z,9.656064
2018-05-17T02:13:01.152Z,9.656064
2018-05-17T02:13:13.567Z,9.656064
2018-05-17T02:13:25.968Z,9.656064
2018-05-17T02:13:38.440Z,9.656064
2018-05-17T02:13:51.050Z,9.656064
2018-05-17T02:14:03.709Z,9.656064
2018-05-17T02:14:16.113Z,6.437376
2018-05-17T02:14:28.541Z,8.04672
2018-05-17T02:14:40.970Z,8.04672
2018-05-17T02:14:53.401Z,8.04672
2018-05-17T02:15:05.883Z,8.04672
2018-05-17T02:15:18.301Z,8.04672
2018-05-17T02:15:30.720Z,8.04672
2018-05-17T02:15:43.414Z,8.04672
2018-05-17T02:15:55.901Z,11.265408
2018-05-17T02:16:08.322Z,9.656064
2018-05-17T02:16:20.744Z,9.656064
2018-05-17T02:16:33.160Z,9.656064
2018-05-17T02:16:45.642Z,9.656064
2018-05-17T02:16:58.133Z,9.656064
2018-05-17T02:17:10.537Z,3.218688
2018-05-17T02:17:22.951Z,8.04672
2018-05-17T02:17:35.371Z,8.04672
2018-05-17T02:17:47.782Z,12.874752
2018-05-17T02:18:00.202Z,12.874752
2018-05-17T02:18:12.622Z,6.437376
2018-05-17T02:18:25.204Z,8.04672
2018-05-17T02:18:37.621Z,8.04672
2018-05-17T02:18:50.028Z,8.04672
2018-05-17T02:19:02.441Z,8.04672
2018-05-17T02:19:15.335Z,3.218688
2018-05-17T02:19:28.162Z,3.218688
2018-05-17T02:19:40.591Z,3.218688
2018-05-17T02:19:52.995Z,3.218688
2018-05-17T02:20:05.420Z,3.218688
2018-05-17T02:20:17.844Z,3.218688
2018-05-17T02:20:30.245Z,4.828032
2018-05-17T02:20:42.799Z,4.828032
2018-05-17T02:20:55.204Z,4.828032
2018-05-17T02:21:07.613Z,3.218688
2018-05-17T02:21:20.033Z,3.218688
2018-05-17T02:21:32.437Z,3.218688
2018-05-17T02:21:44.858Z,3.218688
2018-05-17T02:21:57.293Z,3.218688
2018-05-17T02:22:09.717Z,3.218688
2018-05-17T02:22:22.326Z,6.437376
2018-05-17T02:22:34.731Z,6.437376
2018-05-17T02:22:47.291Z,6.437376
2018-05-17T02:22:59.701Z,6.437376
2018-05-17T02:23:12.108Z,6.437376
2018-05-17T02:23:24.527Z,8.04672
2018-05-17T02:23:36.957Z,8.04672
2018-05-17T02:23:49.376Z,9.656064
2018-05-17T02:24:01.784Z,9.656064
2018-05-17T02:24:14.205Z,12.874752
2018-05-17T02:24:26.611Z,12.874752
2018-05-17T02:24:39.021Z,12.874752
2018-05-17T02:24:51.648Z,12.874752
2018-05-17T02:25:04.063Z,12.874752
2018-05-17T02:25:16.464Z,8.04672
2018-05-17T02:25:28.871Z,8.04672
2018-05-17T02:25:41.361Z,9.656064
2018-05-17T02:25:53.776Z,9.656064
2018-05-17T02:26:06.183Z,6.437376
2018-05-17T02:26:18.598Z,6.437376
2018-05-17T02:26:30.997Z,6.437376
2018-05-17T02:26:43.430Z,6.437376